FLI402 BIKF-EKVG
Flight info
| Callsign | FLI402 |
|---|---|
| Flight time | 1h 27m |
| Altitude | 35000 |
| Route | M076F350 OSKUM3C OSKUM DCT MAGNI DCT |
| Aircraft | A320/M-SDE3FGHIRWY/LB1 |
Departure
| Time | 2026-04-28 12:09 |
|---|---|
| Airport | Keflavik International Airport (BIKF) |
Arrival
| Time | 2026-04-28 13:36 |
|---|---|
| Airport | Vágar Airport (EKVG) |
| Time | Latitude | Longitude | Altitude | Speed | Heading |
|---|---|---|---|---|---|
| 2026-04-28 11:35 | 63.99258 | -22.61628 | 142 ft | 0 kts | 269° |
| 2026-04-28 11:59 | 63.99256 | -22.61576 | 144 ft | 4 kts | 276° |
| 2026-04-28 11:59 | 63.99255 | -22.61527 | 145 ft | 4 kts | 267° |
| 2026-04-28 12:00 | 63.99260 | -22.61469 | 146 ft | 4 kts | 237° |
| 2026-04-28 12:00 | 63.99277 | -22.61440 | 146 ft | 2 kts | 180° |
| 2026-04-28 12:00 | 63.99263 | -22.61440 | 146 ft | 4 kts | 179° |
| 2026-04-28 12:00 | 63.99239 | -22.61439 | 147 ft | 1 kts | 180° |
| 2026-04-28 12:04 | 63.99232 | -22.61439 | 148 ft | 3 kts | 179° |
| 2026-04-28 12:04 | 63.99212 | -22.61435 | 149 ft | 4 kts | 170° |
| 2026-04-28 12:04 | 63.99176 | -22.61373 | 152 ft | 9 kts | 117° |
| 2026-04-28 12:05 | 63.99173 | -22.61188 | 155 ft | 12 kts | 90° |
| 2026-04-28 12:05 | 63.99172 | -22.61030 | 159 ft | 8 kts | 90° |
| 2026-04-28 12:05 | 63.99172 | -22.60901 | 161 ft | 8 kts | 89° |
| 2026-04-28 12:05 | 63.99173 | -22.60800 | 164 ft | 3 kts | 89° |
| 2026-04-28 12:06 | 63.99173 | -22.60795 | 164 ft | 0 kts | 89° |
| 2026-04-28 12:07 | 63.99173 | -22.60781 | 153 ft | 5 kts | 89° |
| 2026-04-28 12:07 | 63.99174 | -22.60615 | 171 ft | 11 kts | 91° |
| 2026-04-28 12:07 | 63.99142 | -22.60539 | 173 ft | 4 kts | 174° |
| 2026-04-28 12:08 | 63.99136 | -22.60540 | 173 ft | 1 kts | 180° |
| 2026-04-28 12:08 | 63.98993 | -22.60539 | 172 ft | 54 kts | 180° |
| 2026-04-28 12:08 | 63.98417 | -22.60542 | 174 ft | 110 kts | 180° |
| 2026-04-28 12:08 | 63.97484 | -22.60542 | 258 ft | 149 kts | 180° |
| 2026-04-28 12:09 | 63.96464 | -22.60540 | 1055 ft | 145 kts | 181° |
| 2026-04-28 12:09 | 63.95468 | -22.60189 | 1853 ft | 154 kts | 159° |
| 2026-04-28 12:09 | 63.94680 | -22.58182 | 2233 ft | 192 kts | 125° |
| 2026-04-28 12:09 | 63.94101 | -22.55235 | 2586 ft | 215 kts | 122° |
| 2026-04-28 12:10 | 63.93484 | -22.51900 | 2937 ft | 241 kts | 121° |
| 2026-04-28 12:10 | 63.92817 | -22.48271 | 3584 ft | 255 kts | 120° |
| 2026-04-28 12:10 | 63.92128 | -22.44510 | 4433 ft | 260 kts | 121° |
| 2026-04-28 12:10 | 63.91425 | -22.40695 | 5277 ft | 263 kts | 122° |
| 2026-04-28 12:11 | 63.90776 | -22.36749 | 6112 ft | 275 kts | 113° |
| 2026-04-28 12:11 | 63.90337 | -22.32477 | 6950 ft | 280 kts | 112° |
| 2026-04-28 12:11 | 63.89923 | -22.28134 | 7815 ft | 283 kts | 111° |
| 2026-04-28 12:11 | 63.89516 | -22.23754 | 8700 ft | 285 kts | 112° |
| 2026-04-28 12:12 | 63.89103 | -22.19322 | 9570 ft | 288 kts | 113° |
| 2026-04-28 12:12 | 63.88678 | -22.14833 | 10169 ft | 299 kts | 113° |
| 2026-04-28 12:12 | 63.88208 | -22.10058 | 10382 ft | 322 kts | 112° |
| 2026-04-28 12:12 | 63.87706 | -22.04970 | 10850 ft | 336 kts | 112° |
| 2026-04-28 12:13 | 63.87202 | -21.99757 | 11518 ft | 342 kts | 112° |
| 2026-04-28 12:13 | 63.86693 | -21.94455 | 12204 ft | 347 kts | 112° |
| 2026-04-28 12:13 | 63.86178 | -21.89083 | 12897 ft | 351 kts | 113° |
| 2026-04-28 12:13 | 63.85656 | -21.83693 | 13603 ft | 356 kts | 113° |
| 2026-04-28 12:14 | 63.85118 | -21.78188 | 14239 ft | 360 kts | 113° |
| 2026-04-28 12:14 | 63.84570 | -21.72624 | 14882 ft | 364 kts | 114° |
| 2026-04-28 12:14 | 63.84013 | -21.67002 | 15531 ft | 367 kts | 114° |
| 2026-04-28 12:14 | 63.83448 | -21.61339 | 16197 ft | 371 kts | 114° |
| 2026-04-28 12:15 | 63.82874 | -21.55632 | 16833 ft | 374 kts | 114° |
| 2026-04-28 12:15 | 63.82291 | -21.49853 | 17448 ft | 377 kts | 115° |
| 2026-04-28 12:15 | 63.81702 | -21.44038 | 18059 ft | 381 kts | 115° |
| 2026-04-28 12:15 | 63.81105 | -21.38164 | 18589 ft | 384 kts | 115° |
| 2026-04-28 12:16 | 63.80502 | -21.32266 | 19118 ft | 387 kts | 115° |
| 2026-04-28 12:16 | 63.79889 | -21.26309 | 19660 ft | 389 kts | 116° |
| 2026-04-28 12:16 | 63.79271 | -21.20316 | 20194 ft | 392 kts | 116° |
| 2026-04-28 12:16 | 63.78650 | -21.14289 | 20730 ft | 395 kts | 116° |
| 2026-04-28 12:17 | 63.78021 | -21.08207 | 21261 ft | 398 kts | 116° |
| 2026-04-28 12:17 | 63.77383 | -21.02093 | 21779 ft | 401 kts | 116° |
| 2026-04-28 12:17 | 63.76735 | -20.95936 | 22294 ft | 404 kts | 117° |
| 2026-04-28 12:17 | 63.76080 | -20.89737 | 22791 ft | 407 kts | 117° |
| 2026-04-28 12:18 | 63.75417 | -20.83486 | 23278 ft | 410 kts | 117° |
| 2026-04-28 12:18 | 63.74749 | -20.77204 | 23696 ft | 413 kts | 117° |
| 2026-04-28 12:18 | 63.74073 | -20.70861 | 24091 ft | 417 kts | 117° |
| 2026-04-28 12:18 | 63.73389 | -20.64466 | 24480 ft | 420 kts | 117° |
| 2026-04-28 12:19 | 63.72698 | -20.58024 | 24838 ft | 423 kts | 118° |
| 2026-04-28 12:19 | 63.71998 | -20.51544 | 25192 ft | 426 kts | 118° |
| 2026-04-28 12:19 | 63.71296 | -20.45017 | 25533 ft | 431 kts | 117° |
| 2026-04-28 12:19 | 63.70661 | -20.38373 | 25874 ft | 437 kts | 115° |
| 2026-04-28 12:20 | 63.70103 | -20.31582 | 26205 ft | 443 kts | 114° |
| 2026-04-28 12:20 | 63.69597 | -20.24698 | 26530 ft | 447 kts | 113° |
| 2026-04-28 12:20 | 63.69110 | -20.17746 | 26857 ft | 451 kts | 113° |
| 2026-04-28 12:20 | 63.68618 | -20.10745 | 27173 ft | 453 kts | 113° |
| 2026-04-28 12:21 | 63.68106 | -20.03717 | 27487 ft | 456 kts | 114° |
| 2026-04-28 12:21 | 63.67568 | -19.96662 | 27797 ft | 458 kts | 114° |
| 2026-04-28 12:21 | 63.67008 | -19.89583 | 28109 ft | 460 kts | 114° |
| 2026-04-28 12:21 | 63.66442 | -19.82577 | 28381 ft | 463 kts | 115° |
| 2026-04-28 12:22 | 63.65860 | -19.75420 | 28644 ft | 466 kts | 114° |
| 2026-04-28 12:22 | 63.65274 | -19.68223 | 28930 ft | 468 kts | 114° |
| 2026-04-28 12:22 | 63.64684 | -19.60989 | 29147 ft | 471 kts | 114° |
| 2026-04-28 12:22 | 63.64091 | -19.53733 | 29381 ft | 473 kts | 114° |
| 2026-04-28 12:23 | 63.63492 | -19.46420 | 29627 ft | 476 kts | 114° |
| 2026-04-28 12:23 | 63.62888 | -19.39098 | 29880 ft | 478 kts | 114° |
| 2026-04-28 12:23 | 63.62277 | -19.31726 | 30136 ft | 481 kts | 114° |
| 2026-04-28 12:23 | 63.61658 | -19.24324 | 30380 ft | 482 kts | 114° |
| 2026-04-28 12:24 | 63.61034 | -19.16909 | 30635 ft | 484 kts | 114° |
| 2026-04-28 12:24 | 63.60406 | -19.09479 | 30849 ft | 485 kts | 114° |
| 2026-04-28 12:24 | 63.59770 | -19.02026 | 31059 ft | 485 kts | 114° |
| 2026-04-28 12:24 | 63.59130 | -18.94583 | 31319 ft | 485 kts | 114° |
| 2026-04-28 12:25 | 63.58490 | -18.87159 | 31658 ft | 483 kts | 114° |
| 2026-04-28 12:25 | 63.57849 | -18.79771 | 32009 ft | 482 kts | 114° |
| 2026-04-28 12:25 | 63.57205 | -18.72405 | 32341 ft | 480 kts | 114° |
| 2026-04-28 12:25 | 63.56556 | -18.65061 | 32679 ft | 478 kts | 114° |
| 2026-04-28 12:26 | 63.55904 | -18.57758 | 32999 ft | 476 kts | 114° |
| 2026-04-28 12:26 | 63.55474 | -18.52951 | 33202 ft | 475 kts | 114° |
| 2026-04-28 12:26 | 63.54820 | -18.45693 | 33513 ft | 474 kts | 114° |
| 2026-04-28 12:26 | 63.54162 | -18.38456 | 33815 ft | 472 kts | 114° |
| 2026-04-28 12:27 | 63.53505 | -18.31264 | 34094 ft | 471 kts | 114° |
| 2026-04-28 12:27 | 63.52846 | -18.24076 | 34347 ft | 470 kts | 114° |
| 2026-04-28 12:27 | 63.52187 | -18.16901 | 34591 ft | 469 kts | 114° |
| 2026-04-28 12:27 | 63.51529 | -18.09747 | 34829 ft | 469 kts | 114° |
| 2026-04-28 12:28 | 63.50867 | -18.02594 | 34959 ft | 468 kts | 114° |
| 2026-04-28 12:28 | 63.50207 | -17.95489 | 34988 ft | 464 kts | 114° |
| 2026-04-28 12:28 | 63.48874 | -17.81392 | 34994 ft | 462 kts | 114° |
| 2026-04-28 12:29 | 63.46832 | -17.60328 | 34999 ft | 462 kts | 114° |
| 2026-04-28 12:30 | 63.45471 | -17.46296 | 35007 ft | 462 kts | 114° |
| 2026-04-28 12:30 | 63.44104 | -17.32267 | 35006 ft | 462 kts | 114° |
| 2026-04-28 12:31 | 63.42712 | -17.18250 | 35012 ft | 462 kts | 114° |
| 2026-04-28 12:31 | 63.41313 | -17.04336 | 35012 ft | 462 kts | 114° |
| 2026-04-28 12:32 | 63.39894 | -16.90342 | 35014 ft | 463 kts | 114° |
| 2026-04-28 12:32 | 63.38466 | -16.76342 | 35017 ft | 463 kts | 114° |
| 2026-04-28 12:33 | 63.37019 | -16.62360 | 35023 ft | 463 kts | 114° |
| 2026-04-28 12:33 | 63.35555 | -16.48379 | 35029 ft | 463 kts | 114° |
| 2026-04-28 12:34 | 63.34078 | -16.34410 | 35036 ft | 463 kts | 114° |
| 2026-04-28 12:34 | 63.32585 | -16.20462 | 35040 ft | 463 kts | 114° |
| 2026-04-28 12:35 | 63.31077 | -16.06508 | 35050 ft | 464 kts | 114° |
| 2026-04-28 12:35 | 63.29563 | -15.92585 | 35055 ft | 464 kts | 114° |
| 2026-04-28 12:36 | 63.28037 | -15.78666 | 35062 ft | 463 kts | 114° |
| 2026-04-28 12:36 | 63.26494 | -15.64758 | 35066 ft | 463 kts | 114° |
| 2026-04-28 12:37 | 63.24942 | -15.50878 | 35075 ft | 463 kts | 114° |
| 2026-04-28 12:37 | 63.23369 | -15.37012 | 35079 ft | 463 kts | 114° |
| 2026-04-28 12:38 | 63.21782 | -15.23163 | 35088 ft | 463 kts | 114° |
| 2026-04-28 12:38 | 63.20190 | -15.09425 | 35095 ft | 463 kts | 114° |
| 2026-04-28 12:39 | 63.18582 | -14.95621 | 35102 ft | 463 kts | 113° |
| 2026-04-28 12:39 | 63.16961 | -14.81837 | 35105 ft | 462 kts | 114° |
| 2026-04-28 12:40 | 63.15320 | -14.68076 | 35116 ft | 462 kts | 114° |
| 2026-04-28 12:40 | 63.13670 | -14.54325 | 35114 ft | 462 kts | 113° |
| 2026-04-28 12:41 | 63.12014 | -14.40589 | 35120 ft | 462 kts | 113° |
| 2026-04-28 12:41 | 63.10335 | -14.26865 | 35122 ft | 462 kts | 114° |
| 2026-04-28 12:42 | 63.08644 | -14.13166 | 35127 ft | 462 kts | 113° |
| 2026-04-28 12:42 | 63.06943 | -13.99489 | 35135 ft | 462 kts | 113° |
| 2026-04-28 12:43 | 63.05228 | -13.85831 | 35139 ft | 462 kts | 113° |
| 2026-04-28 12:43 | 63.03502 | -13.72171 | 35148 ft | 462 kts | 113° |
| 2026-04-28 12:44 | 63.01762 | -13.58555 | 35151 ft | 462 kts | 113° |
| 2026-04-28 12:44 | 63.00011 | -13.44935 | 35161 ft | 462 kts | 113° |
| 2026-04-28 12:45 | 62.98244 | -13.31350 | 35156 ft | 462 kts | 113° |
| 2026-04-28 12:45 | 62.96462 | -13.17772 | 35166 ft | 462 kts | 113° |
| 2026-04-28 12:46 | 62.94675 | -13.04195 | 35169 ft | 462 kts | 113° |
| 2026-04-28 12:46 | 62.92872 | -12.90660 | 35174 ft | 462 kts | 113° |
| 2026-04-28 12:47 | 62.91058 | -12.77127 | 35181 ft | 462 kts | 113° |
| 2026-04-28 12:47 | 62.89227 | -12.63613 | 35187 ft | 462 kts | 113° |
| 2026-04-28 12:48 | 62.87376 | -12.50125 | 35197 ft | 462 kts | 113° |
| 2026-04-28 12:48 | 62.85517 | -12.36653 | 35198 ft | 462 kts | 113° |
| 2026-04-28 12:49 | 62.83652 | -12.23211 | 35204 ft | 462 kts | 113° |
| 2026-04-28 12:49 | 62.81772 | -12.09786 | 35211 ft | 461 kts | 113° |
| 2026-04-28 12:50 | 62.79878 | -11.96370 | 35218 ft | 461 kts | 113° |
| 2026-04-28 12:50 | 62.77990 | -11.83080 | 35221 ft | 461 kts | 113° |
| 2026-04-28 12:51 | 62.76068 | -11.69623 | 35223 ft | 461 kts | 113° |
| 2026-04-28 12:51 | 62.74147 | -11.56365 | 35228 ft | 461 kts | 113° |
| 2026-04-28 12:52 | 62.72196 | -11.43034 | 35232 ft | 461 kts | 113° |
| 2026-04-28 12:52 | 62.70242 | -11.29719 | 35237 ft | 461 kts | 113° |
| 2026-04-28 12:53 | 62.68279 | -11.16450 | 35238 ft | 461 kts | 113° |
| 2026-04-28 12:53 | 62.66303 | -11.03173 | 35244 ft | 461 kts | 112° |
| 2026-04-28 12:54 | 62.64315 | -10.89928 | 35255 ft | 460 kts | 113° |
| 2026-04-28 12:54 | 62.62312 | -10.76719 | 35263 ft | 460 kts | 113° |
| 2026-04-28 12:55 | 62.60288 | -10.63504 | 34933 ft | 461 kts | 113° |
| 2026-04-28 12:55 | 62.59274 | -10.56911 | 34689 ft | 461 kts | 113° |
| 2026-04-28 12:55 | 62.58254 | -10.50309 | 34450 ft | 462 kts | 112° |
| 2026-04-28 12:55 | 62.57230 | -10.43696 | 34199 ft | 463 kts | 112° |
| 2026-04-28 12:56 | 62.56204 | -10.37076 | 33921 ft | 463 kts | 112° |
| 2026-04-28 12:56 | 62.55174 | -10.30455 | 33659 ft | 464 kts | 112° |
| 2026-04-28 12:56 | 62.54137 | -10.23821 | 33384 ft | 465 kts | 112° |
| 2026-04-28 12:56 | 62.53097 | -10.17174 | 33109 ft | 466 kts | 112° |
| 2026-04-28 12:57 | 62.52069 | -10.10616 | 32683 ft | 465 kts | 112° |
| 2026-04-28 12:57 | 62.51028 | -10.04011 | 32022 ft | 463 kts | 112° |
| 2026-04-28 12:57 | 62.49987 | -9.97439 | 31398 ft | 460 kts | 112° |
| 2026-04-28 12:57 | 62.48949 | -9.90915 | 30768 ft | 459 kts | 112° |
| 2026-04-28 12:58 | 62.47905 | -9.84404 | 30115 ft | 457 kts | 112° |
| 2026-04-28 12:58 | 62.46865 | -9.77930 | 29482 ft | 454 kts | 112° |
| 2026-04-28 12:58 | 62.45833 | -9.71508 | 28887 ft | 450 kts | 112° |
| 2026-04-28 12:58 | 62.44809 | -9.65138 | 28283 ft | 447 kts | 113° |
| 2026-04-28 12:59 | 62.43788 | -9.58832 | 27692 ft | 444 kts | 113° |
| 2026-04-28 12:59 | 62.42769 | -9.52570 | 27141 ft | 440 kts | 113° |
| 2026-04-28 12:59 | 62.41753 | -9.46356 | 26556 ft | 438 kts | 113° |
| 2026-04-28 12:59 | 62.40739 | -9.40177 | 25994 ft | 435 kts | 113° |
| 2026-04-28 13:00 | 62.39730 | -9.34048 | 25432 ft | 433 kts | 113° |
| 2026-04-28 13:00 | 62.38724 | -9.27958 | 24891 ft | 431 kts | 113° |
| 2026-04-28 13:00 | 62.37720 | -9.21893 | 24369 ft | 428 kts | 113° |
| 2026-04-28 13:00 | 62.36723 | -9.15869 | 23836 ft | 426 kts | 114° |
| 2026-04-28 13:01 | 62.35726 | -9.09876 | 23289 ft | 423 kts | 114° |
| 2026-04-28 13:01 | 62.34739 | -9.03949 | 22805 ft | 419 kts | 114° |
| 2026-04-28 13:01 | 62.33753 | -8.98075 | 22311 ft | 415 kts | 114° |
| 2026-04-28 13:01 | 62.32784 | -8.92335 | 21828 ft | 412 kts | 114° |
| 2026-04-28 13:02 | 62.31808 | -8.86568 | 21335 ft | 409 kts | 114° |
| 2026-04-28 13:02 | 62.30839 | -8.80831 | 20845 ft | 407 kts | 114° |
| 2026-04-28 13:02 | 62.29875 | -8.75131 | 20334 ft | 405 kts | 114° |
| 2026-04-28 13:02 | 62.28913 | -8.69453 | 19827 ft | 403 kts | 115° |
| 2026-04-28 13:03 | 62.27950 | -8.63811 | 19308 ft | 402 kts | 115° |
| 2026-04-28 13:03 | 62.26986 | -8.58179 | 18791 ft | 401 kts | 115° |
| 2026-04-28 13:03 | 62.26020 | -8.52558 | 18231 ft | 401 kts | 115° |
| 2026-04-28 13:03 | 62.25058 | -8.46967 | 17707 ft | 398 kts | 115° |
| 2026-04-28 13:04 | 62.24099 | -8.41409 | 17192 ft | 395 kts | 115° |
| 2026-04-28 13:04 | 62.23144 | -8.35904 | 16688 ft | 393 kts | 115° |
| 2026-04-28 13:04 | 62.22191 | -8.30421 | 16182 ft | 391 kts | 115° |
| 2026-04-28 13:04 | 62.21243 | -8.24984 | 15691 ft | 388 kts | 115° |
| 2026-04-28 13:05 | 62.20299 | -8.19572 | 15185 ft | 386 kts | 115° |
| 2026-04-28 13:05 | 62.19356 | -8.14198 | 14694 ft | 385 kts | 115° |
| 2026-04-28 13:05 | 62.18415 | -8.08858 | 14186 ft | 383 kts | 115° |
| 2026-04-28 13:05 | 62.17478 | -8.03564 | 13652 ft | 381 kts | 115° |
| 2026-04-28 13:06 | 62.16547 | -7.98290 | 13140 ft | 378 kts | 114° |
| 2026-04-28 13:06 | 62.15623 | -7.93052 | 12790 ft | 370 kts | 114° |
| 2026-04-28 13:06 | 62.14728 | -7.88001 | 12670 ft | 357 kts | 115° |
| 2026-04-28 13:06 | 62.13863 | -7.83151 | 12522 ft | 341 kts | 115° |
| 2026-04-28 13:07 | 62.12977 | -7.78557 | 12405 ft | 326 kts | 123° |
| 2026-04-28 13:07 | 62.11639 | -7.74847 | 12285 ft | 306 kts | 143° |
| 2026-04-28 13:07 | 62.09930 | -7.72416 | 12152 ft | 287 kts | 161° |
| 2026-04-28 13:07 | 62.08706 | -7.71516 | 12070 ft | 276 kts | 173° |
| 2026-04-28 13:08 | 62.06258 | -7.71294 | 11903 ft | 254 kts | 194° |
| 2026-04-28 13:08 | 62.04613 | -7.72305 | 11776 ft | 241 kts | 208° |
| 2026-04-28 13:08 | 62.03201 | -7.74085 | 11560 ft | 233 kts | 221° |
| 2026-04-28 13:08 | 62.02074 | -7.76482 | 11400 ft | 227 kts | 233° |
| 2026-04-28 13:09 | 62.01260 | -7.79331 | 11109 ft | 225 kts | 246° |
| 2026-04-28 13:09 | 62.00794 | -7.82503 | 10792 ft | 226 kts | 258° |
| 2026-04-28 13:09 | 62.00694 | -7.85834 | 10471 ft | 227 kts | 271° |
| 2026-04-28 13:09 | 62.00987 | -7.89156 | 10013 ft | 236 kts | 289° |
| 2026-04-28 13:10 | 62.01949 | -7.92042 | 9607 ft | 247 kts | 316° |
| 2026-04-28 13:10 | 62.03527 | -7.93591 | 9224 ft | 259 kts | 348° |
| 2026-04-28 13:10 | 62.05319 | -7.93069 | 8833 ft | 269 kts | 22° |
| 2026-04-28 13:10 | 62.06912 | -7.90819 | 8309 ft | 278 kts | 36° |
| 2026-04-28 13:11 | 62.08454 | -7.88273 | 8068 ft | 283 kts | 37° |
| 2026-04-28 13:11 | 62.09807 | -7.85301 | 7821 ft | 283 kts | 56° |
| 2026-04-28 13:11 | 62.10702 | -7.81593 | 7578 ft | 281 kts | 74° |
| 2026-04-28 13:11 | 62.11078 | -7.77545 | 7436 ft | 277 kts | 91° |
| 2026-04-28 13:12 | 62.10943 | -7.73495 | 7311 ft | 271 kts | 107° |
| 2026-04-28 13:12 | 62.10313 | -7.69764 | 7195 ft | 264 kts | 124° |
| 2026-04-28 13:12 | 62.09676 | -7.67500 | 7122 ft | 263 kts | 127° |
| 2026-04-28 13:12 | 62.08714 | -7.64188 | 6995 ft | 262 kts | 127° |
| 2026-04-28 13:13 | 62.07482 | -7.59930 | 6834 ft | 247 kts | 127° |
| 2026-04-28 13:13 | 62.06879 | -7.57843 | 6752 ft | 241 kts | 128° |
| 2026-04-28 13:13 | 62.06016 | -7.54864 | 6618 ft | 232 kts | 128° |
| 2026-04-28 13:13 | 62.05185 | -7.52001 | 6487 ft | 223 kts | 128° |
| 2026-04-28 13:14 | 62.04386 | -7.49252 | 6401 ft | 212 kts | 128° |
| 2026-04-28 13:14 | 62.03631 | -7.46662 | 6268 ft | 206 kts | 129° |
| 2026-04-28 13:14 | 62.02877 | -7.44090 | 6134 ft | 204 kts | 129° |
| 2026-04-28 13:14 | 62.02125 | -7.41524 | 6004 ft | 204 kts | 129° |
| 2026-04-28 13:15 | 62.01374 | -7.38969 | 5878 ft | 204 kts | 129° |
| 2026-04-28 13:15 | 62.00624 | -7.36416 | 5749 ft | 203 kts | 129° |
| 2026-04-28 13:15 | 61.99872 | -7.33866 | 5627 ft | 203 kts | 129° |
| 2026-04-28 13:15 | 61.99120 | -7.31321 | 5502 ft | 203 kts | 129° |
| 2026-04-28 13:16 | 61.98367 | -7.28777 | 5378 ft | 203 kts | 129° |
| 2026-04-28 13:16 | 61.97619 | -7.26238 | 5256 ft | 203 kts | 129° |
| 2026-04-28 13:16 | 61.96869 | -7.23696 | 5130 ft | 203 kts | 129° |
| 2026-04-28 13:16 | 61.96120 | -7.21160 | 4998 ft | 202 kts | 129° |
| 2026-04-28 13:17 | 61.95374 | -7.18632 | 4866 ft | 202 kts | 129° |
| 2026-04-28 13:17 | 61.94766 | -7.15961 | 4729 ft | 200 kts | 113° |
| 2026-04-28 13:17 | 61.94537 | -7.13095 | 4596 ft | 195 kts | 96° |
| 2026-04-28 13:17 | 61.94666 | -7.10233 | 4467 ft | 195 kts | 79° |
| 2026-04-28 13:18 | 61.95150 | -7.07544 | 4333 ft | 196 kts | 61° |
| 2026-04-28 13:18 | 61.95966 | -7.05252 | 4236 ft | 194 kts | 42° |
| 2026-04-28 13:18 | 61.97033 | -7.03521 | 4181 ft | 192 kts | 25° |
| 2026-04-28 13:18 | 61.98251 | -7.02453 | 4096 ft | 188 kts | 8° |
| 2026-04-28 13:19 | 61.99523 | -7.02099 | 4034 ft | 182 kts | 352° |
| 2026-04-28 13:19 | 62.00761 | -7.02420 | 3901 ft | 180 kts | 338° |
| 2026-04-28 13:19 | 62.01937 | -7.03417 | 3364 ft | 183 kts | 322° |
| 2026-04-28 13:19 | 62.02945 | -7.05009 | 2851 ft | 178 kts | 307° |
| 2026-04-28 13:20 | 62.03672 | -7.06967 | 2498 ft | 158 kts | 290° |
| 2026-04-28 13:20 | 62.03973 | -7.09013 | 2227 ft | 137 kts | 271° |
| 2026-04-28 13:20 | 62.04107 | -7.10989 | 1999 ft | 133 kts | 271° |
| 2026-04-28 13:20 | 62.04243 | -7.12913 | 1788 ft | 131 kts | 271° |
| 2026-04-28 13:21 | 62.04376 | -7.14832 | 1564 ft | 131 kts | 271° |
| 2026-04-28 13:21 | 62.04506 | -7.16741 | 1359 ft | 130 kts | 271° |
| 2026-04-28 13:21 | 62.04636 | -7.18640 | 1139 ft | 129 kts | 271° |
| 2026-04-28 13:21 | 62.04766 | -7.20542 | 926 ft | 129 kts | 273° |
| 2026-04-28 13:22 | 62.05004 | -7.22408 | 726 ft | 137 kts | 291° |
| 2026-04-28 13:22 | 62.05516 | -7.24139 | 487 ft | 138 kts | 297° |
| 2026-04-28 13:22 | 62.05961 | -7.26108 | 592 ft | 157 kts | 290° |
| 2026-04-28 13:22 | 62.06467 | -7.28209 | 1465 ft | 158 kts | 292° |
| 2026-04-28 13:23 | 62.07019 | -7.30205 | 2412 ft | 158 kts | 292° |
| 2026-04-28 13:23 | 62.07632 | -7.32349 | 2765 ft | 181 kts | 293° |
| 2026-04-28 13:23 | 62.08257 | -7.34851 | 3182 ft | 200 kts | 285° |
| 2026-04-28 13:23 | 62.08730 | -7.37707 | 3829 ft | 208 kts | 282° |
| 2026-04-28 13:24 | 62.09108 | -7.40670 | 3971 ft | 205 kts | 278° |
| 2026-04-28 13:24 | 62.09287 | -7.43625 | 4009 ft | 198 kts | 257° |
| 2026-04-28 13:24 | 62.08688 | -7.46182 | 4011 ft | 195 kts | 225° |
| 2026-04-28 13:24 | 62.07600 | -7.47912 | 4010 ft | 197 kts | 204° |
| 2026-04-28 13:25 | 62.06223 | -7.48237 | 4009 ft | 206 kts | 181° |
| 2026-04-28 13:25 | 62.04791 | -7.47849 | 4010 ft | 208 kts | 177° |
| 2026-04-28 13:25 | 62.03373 | -7.47238 | 4011 ft | 213 kts | 163° |
| 2026-04-28 13:25 | 62.02191 | -7.45231 | 4010 ft | 228 kts | 130° |
| 2026-04-28 13:26 | 62.01458 | -7.42170 | 4010 ft | 234 kts | 118° |
| 2026-04-28 13:26 | 62.00811 | -7.38987 | 4011 ft | 234 kts | 121° |
| 2026-04-28 13:26 | 62.00115 | -7.35878 | 4014 ft | 233 kts | 122° |
| 2026-04-28 13:26 | 61.99415 | -7.32804 | 4012 ft | 234 kts | 122° |
| 2026-04-28 13:27 | 61.98704 | -7.29680 | 4012 ft | 234 kts | 122° |
| 2026-04-28 13:27 | 61.98006 | -7.26613 | 4005 ft | 223 kts | 122° |
| 2026-04-28 13:27 | 61.97362 | -7.23737 | 4018 ft | 206 kts | 122° |
| 2026-04-28 13:27 | 61.96763 | -7.21013 | 4024 ft | 202 kts | 122° |
| 2026-04-28 13:28 | 61.96170 | -7.18307 | 4007 ft | 201 kts | 122° |
| 2026-04-28 13:28 | 61.95577 | -7.15614 | 4007 ft | 201 kts | 122° |
| 2026-04-28 13:28 | 61.94981 | -7.12913 | 4009 ft | 201 kts | 122° |
| 2026-04-28 13:28 | 61.94386 | -7.10221 | 4014 ft | 201 kts | 122° |
| 2026-04-28 13:29 | 61.93791 | -7.07538 | 4011 ft | 201 kts | 122° |
| 2026-04-28 13:29 | 61.93193 | -7.04849 | 4013 ft | 202 kts | 122° |
| 2026-04-28 13:29 | 61.92588 | -7.02148 | 4015 ft | 202 kts | 122° |
| 2026-04-28 13:29 | 61.91984 | -6.99457 | 4013 ft | 203 kts | 121° |
| 2026-04-28 13:30 | 61.91694 | -6.96601 | 4003 ft | 196 kts | 90° |
| 2026-04-28 13:30 | 61.92099 | -6.93894 | 4010 ft | 194 kts | 56° |
| 2026-04-28 13:30 | 61.93072 | -6.91993 | 4013 ft | 190 kts | 24° |
| 2026-04-28 13:30 | 61.94297 | -6.91082 | 4013 ft | 184 kts | 1° |
| 2026-04-28 13:31 | 61.96654 | -6.91863 | 3971 ft | 160 kts | 322° |
| 2026-04-28 13:31 | 61.97534 | -6.93216 | 4176 ft | 162 kts | 307° |
| 2026-04-28 13:31 | 61.98197 | -6.95126 | 3864 ft | 155 kts | 289° |
| 2026-04-28 13:32 | 61.98694 | -6.97104 | 3769 ft | 151 kts | 290° |
| 2026-04-28 13:32 | 61.99195 | -6.99085 | 3591 ft | 151 kts | 290° |
| 2026-04-28 13:32 | 61.99699 | -7.01085 | 3373 ft | 155 kts | 290° |
| 2026-04-28 13:32 | 62.00204 | -7.03088 | 3129 ft | 153 kts | 290° |
| 2026-04-28 13:33 | 62.00704 | -7.05077 | 2883 ft | 152 kts | 290° |
| 2026-04-28 13:33 | 62.01194 | -7.07028 | 2649 ft | 151 kts | 290° |
| 2026-04-28 13:33 | 62.01690 | -7.09007 | 2413 ft | 151 kts | 290° |
| 2026-04-28 13:33 | 62.02183 | -7.10961 | 2185 ft | 141 kts | 289° |
| 2026-04-28 13:34 | 62.02628 | -7.12741 | 1953 ft | 137 kts | 288° |
| 2026-04-28 13:34 | 62.03072 | -7.14517 | 1737 ft | 136 kts | 288° |
| 2026-04-28 13:34 | 62.03514 | -7.16287 | 1495 ft | 135 kts | 291° |
| 2026-04-28 13:34 | 62.03956 | -7.18057 | 1341 ft | 136 kts | 290° |
| 2026-04-28 13:35 | 62.04399 | -7.19836 | 1086 ft | 136 kts | 289° |
| 2026-04-28 13:35 | 62.04845 | -7.21628 | 854 ft | 136 kts | 290° |
| 2026-04-28 13:35 | 62.05285 | -7.23422 | 617 ft | 138 kts | 290° |
| 2026-04-28 13:35 | 62.05742 | -7.25234 | 363 ft | 139 kts | 291° |
| 2026-04-28 13:36 | 62.06179 | -7.27013 | 275 ft | 121 kts | 297° |
| 2026-04-28 13:36 | 62.06494 | -7.28265 | 288 ft | 75 kts | 298° |
| 2026-04-28 13:36 | 62.06637 | -7.28846 | 285 ft | 24 kts | 298° |
| 2026-04-28 13:36 | 62.06699 | -7.29087 | 278 ft | 13 kts | 295° |
| 2026-04-28 13:37 | 62.06721 | -7.29202 | 280 ft | 2 kts | 29° |
| 2026-04-28 13:37 | 62.06718 | -7.29154 | 280 ft | 4 kts | 113° |
| 2026-04-28 13:37 | 62.06693 | -7.29063 | 278 ft | 13 kts | 120° |
| 2026-04-28 13:37 | 62.06640 | -7.28845 | 284 ft | 18 kts | 117° |
| 2026-04-28 13:38 | 62.06581 | -7.28607 | 281 ft | 18 kts | 118° |
| 2026-04-28 13:38 | 62.06522 | -7.28384 | 287 ft | 15 kts | 118° |
| 2026-04-28 13:38 | 62.06485 | -7.28225 | 286 ft | 8 kts | 108° |
| 2026-04-28 13:38 | 62.06505 | -7.28146 | 287 ft | 8 kts | 34° |
| 2026-04-28 13:39 | 62.06575 | -7.28092 | 288 ft | 10 kts | 10° |
| 2026-04-28 13:39 | 62.06643 | -7.28096 | 289 ft | 8 kts | 348° |
| 2026-04-28 13:39 | 62.06695 | -7.28085 | 292 ft | 7 kts | 21° |
| 2026-04-28 13:39 | 62.06711 | -7.28046 | 290 ft | 0 kts | 76° |
| 2026-04-28 13:40 | 62.06711 | -7.28043 | 290 ft | 2 kts | 79° |
| 2026-04-28 13:40 | 62.06711 | -7.28035 | 290 ft | 0 kts | 81° |